Time;durP1;ratioP1;P1;durP2;ratioP2;P2;SDS_P1;SDS_P2;PMS_P1;PMS_P2;Temp;Humidity;BMP_temperature;BMP_pressure;BME280_temperature;BME280_humidity;BME280_pressure;Samples;Min_cycle;Max_cycle;Signal;HPM_P1;HPM_P2
2023/03/16 00:02:25;;;;;;;27.87;16.03;;;;;;;-0.44;100.00;98567.09;5030890;28;20229;-76
2023/03/16 00:04:54;;;;;;;22.97;15.57;;;;;;;-0.44;100.00;98572.28;5031353;28;20582;-76
2023/03/16 00:07:21;;;;;;;23.70;16.43;;;;;;;-0.37;100.00;98573.88;5031245;28;20216;-76
2023/03/16 00:09:47;;;;;;;28.47;16.33;;;;;;;-0.43;100.00;98573.97;5031130;28;20411;-76
2023/03/16 00:12:16;;;;;;;23.53;15.13;;;;;;;-0.44;100.00;98574.88;5030970;28;20233;-76
2023/03/16 00:14:43;;;;;;;22.60;15.73;;;;;;;-0.44;100.00;98577.47;5031075;28;20220;-76
2023/03/16 00:17:17;;;;;;;25.30;16.23;;;;;;;-0.44;100.00;98577.47;5030887;28;20548;-76
2023/03/16 00:19:46;;;;;;;22.60;15.07;;;;;;;-0.44;100.00;98567.09;5030943;28;20205;-76
2023/03/16 00:22:14;;;;;;;23.03;14.70;;;;;;;-0.45;100.00;98573.16;5030979;28;20209;-77
2023/03/16 00:24:42;;;;;;;24.80;15.17;;;;;;;-0.47;100.00;98570.59;5030995;28;20206;-77
2023/03/16 00:27:13;;;;;;;25.00;16.00;;;;;;;-0.46;100.00;98571.44;5031014;28;20210;-76
2023/03/16 00:29:45;;;;;;;23.07;15.33;;;;;;;-0.47;100.00;98567.13;5030597;28;20218;-76
2023/03/16 00:32:13;;;;;;;21.43;14.50;;;;;;;-0.50;100.00;98572.41;5030786;28;20215;-76
2023/03/16 00:34:39;;;;;;;24.00;15.27;;;;;;;-0.50;100.00;98572.41;5031090;28;20209;-77
2023/03/16 00:37:05;;;;;;;27.90;16.30;;;;;;;-0.52;100.00;98575.00;5031565;28;20211;-76
2023/03/16 00:39:34;;;;;;;25.67;15.93;;;;;;;-0.52;100.00;98579.34;5030900;28;20219;-76
2023/03/16 00:42:01;;;;;;;26.27;16.53;;;;;;;-0.54;100.00;98575.91;5030794;28;20206;-75
2023/03/16 00:44:28;;;;;;;22.80;15.40;;;;;;;-0.56;100.00;98572.50;5031057;28;20218;-77
2023/03/16 00:46:55;;;;;;;27.53;16.20;;;;;;;-0.57;100.00;98573.41;5030732;28;20217;-76
2023/03/16 00:49:24;;;;;;;23.30;15.37;;;;;;;-0.58;100.00;98569.06;5030573;28;20212;-77
2023/03/16 00:51:50;;;;;;;24.07;16.20;;;;;;;-0.57;100.00;98573.41;5030782;28;20213;-76
2023/03/16 00:54:17;;;;;;;25.37;15.47;;;;;;;-0.64;100.00;98563.97;5044328;22;20237;-78
2023/03/16 00:56:45;;;;;;;24.57;15.83;;;;;;;-0.64;100.00;98569.16;5030269;28;20213;-78
2023/03/16 00:59:12;;;;;;;26.17;15.90;;;;;;;-0.66;100.00;98560.56;5030079;28;20212;-78
2023/03/16 01:01:39;;;;;;;23.40;15.03;;;;;;;-0.66;100.00;98571.81;5030381;28;20699;-78
2023/03/16 01:04:05;;;;;;;25.53;16.23;;;;;;;-0.65;100.00;98568.34;5030599;28;20230;-78
2023/03/16 01:06:32;;;;;;;26.07;15.60;;;;;;;-0.69;100.00;98571.03;5030625;28;20380;-78
2023/03/16 01:08:58;;;;;;;25.53;16.00;;;;;;;-0.70;100.00;98574.47;5030604;28;20206;-77
2023/03/16 01:11:25;;;;;;;27.17;16.83;;;;;;;-0.75;100.00;98566.78;5030348;28;20213;-77
2023/03/16 01:13:53;;;;;;;24.87;15.90;;;;;;;-0.73;100.00;98569.34;5031333;28;20264;-79
2023/03/16 01:16:21;;;;;;;24.53;15.63;;;;;;;-0.75;100.00;98563.34;5034059;28;20360;-79
2023/03/16 01:18:48;;;;;;;23.07;14.63;;;;;;;-0.78;100.00;98560.78;5033845;28;20673;-78
2023/03/16 01:21:15;;;;;;;23.47;14.73;;;;;;;-0.82;100.00;98559.13;5033739;28;20213;-77
2023/03/16 01:23:43;;;;;;;24.63;14.90;;;;;;;-0.81;100.00;98566.06;5033711;28;20737;-78
2023/03/16 01:26:10;;;;;;;22.43;14.90;;;;;;;-0.82;100.00;98557.41;5033972;28;20225;-78
2023/03/16 01:28:37;;;;;;;24.00;15.40;;;;;;;-0.84;100.00;98555.72;5033905;28;20218;-78
2023/03/16 01:31:07;;;;;;;23.13;15.23;;;;;;;-0.85;100.00;98546.22;5033599;28;20238;-78
2023/03/16 01:33:35;;;;;;;23.10;15.07;;;;;;;-0.86;100.00;98547.09;5033515;28;20268;-78
2023/03/16 01:36:04;;;;;;;23.77;15.13;;;;;;;-0.88;100.00;98548.84;5033724;28;20209;-78
2023/03/16 01:38:31;;;;;;;24.67;15.23;;;;;;;-0.90;100.00;98548.91;5033363;28;20213;-78
2023/03/16 01:40:57;;;;;;;24.10;15.23;;;;;;;-0.91;100.00;98547.19;5033117;28;20212;-78
2023/03/16 01:43:27;;;;;;;24.60;15.33;;;;;;;-0.95;100.00;98548.13;5033519;28;20226;-78
2023/03/16 01:46:16;;;;;;;24.07;14.67;;;;;;;-0.95;100.00;98547.25;5033499;28;20210;-78
2023/03/16 01:48:48;;;;;;;22.73;14.90;;;;;;;-0.94;100.00;98549.81;5033010;28;20282;-78
2023/03/16 01:51:21;;;;;;;26.20;15.77;;;;;;;-0.98;100.00;98549.91;5033165;28;20213;-78
2023/03/16 01:53:51;;;;;;;24.43;15.30;;;;;;;-1.00;100.00;98549.09;5032991;28;20610;-78
2023/03/16 01:56:24;;;;;;;23.50;14.47;;;;;;;-1.01;100.00;98543.03;5033283;28;20213;-78
2023/03/16 01:58:57;;;;;;;26.10;15.30;;;;;;;-0.98;100.00;98544.72;5032830;28;20208;-78
2023/03/16 02:01:27;;;;;;;23.93;14.63;;;;;;;-1.06;100.00;98538.81;5032660;28;20252;-78
2023/03/16 02:03:57;;;;;;;24.47;15.47;;;;;;;-1.05;100.00;98537.94;5032719;28;20742;-78
2023/03/16 02:06:24;;;;;;;25.80;14.80;;;;;;;-1.06;100.00;98538.81;5033040;28;20213;-78
2023/03/16 02:08:54;;;;;;;23.13;14.93;;;;;;;-1.08;100.00;98540.56;5032889;28;20228;-78
2023/03/16 02:11:22;;;;;;;23.67;14.67;;;;;;;-1.10;100.00;98535.41;5032563;28;20237;-78
2023/03/16 02:13:49;;;;;;;23.67;14.50;;;;;;;-1.11;100.00;98530.25;5032410;28;20237;-78
2023/03/16 02:16:18;;;;;;;25.67;15.00;;;;;;;-1.09;100.00;98528.47;5032896;28;20215;-78
2023/03/16 02:18:47;;;;;;;29.13;15.83;;;;;;;-1.06;100.00;98523.25;5032596;28;20216;-78
2023/03/16 02:21:19;;;;;;;25.77;15.90;;;;;;;-0.99;100.00;98522.25;5032390;28;20209;-78
2023/03/16 02:23:46;;;;;;;26.13;15.00;;;;;;;-0.97;100.00;98523.09;5032503;28;20226;-78
2023/03/16 02:26:21;;;;;;;29.77;15.57;;;;;;;-1.01;100.00;98526.59;5031211;28;20206;-79
2023/03/16 02:29:01;;;;;;;22.47;13.70;;;;;;;-1.03;100.00;98523.19;5032670;28;20209;-78
2023/03/16 02:31:29;;;;;;;20.87;13.57;;;;;;;-1.04;100.00;98529.28;5032284;28;20211;-77
2023/03/16 02:33:57;;;;;;;25.60;13.60;;;;;;;-1.17;100.00;98520.81;5032156;28;20233;-78
2023/03/16 02:36:23;;;;;;;23.83;14.00;;;;;;;-1.26;100.00;98522.72;5032406;28;20228;-78
2023/03/16 02:38:50;;;;;;;21.57;14.00;;;;;;;-1.33;100.00;98514.19;5032104;28;20209;-78
2023/03/16 02:41:19;;;;;;;22.93;13.93;;;;;;;-1.37;100.00;98522.03;5032092;28;20205;-77
2023/03/16 02:43:51;;;;;;;24.77;14.40;;;;;;;-1.42;100.00;98524.72;5031793;28;20315;-78
2023/03/16 02:46:21;;;;;;;24.87;14.87;;;;;;;-1.43;100.00;98511.75;5032208;28;20261;-79
2023/03/16 02:48:54;;;;;;;25.63;14.87;;;;;;;-1.41;100.00;98518.63;5031829;28;20243;-77
2023/03/16 02:51:21;;;;;;;27.27;15.83;;;;;;;-1.39;100.00;98510.84;5031652;28;20209;-79
2023/03/16 02:53:47;;;;;;;29.40;16.60;;;;;;;-1.32;100.00;98512.44;5031773;28;20228;-79
2023/03/16 02:56:14;;;;;;;31.37;17.30;;;;;;;-1.25;100.00;98506.28;5032026;28;20205;-79
2023/03/16 02:58:40;;;;;;;31.70;17.63;;;;;;;-1.21;100.00;98502.75;5032024;28;20220;-78
2023/03/16 03:01:07;;;;;;;32.30;17.37;;;;;;;-1.20;100.00;98512.25;5031603;28;20213;-77
2023/03/16 03:03:33;;;;;;;33.83;17.73;;;;;;;-1.17;100.00;98504.44;5031677;28;20232;-79
2023/03/16 03:06:01;;;;;;;28.10;16.83;;;;;;;-1.13;100.00;98500.88;5031587;28;20209;-79
2023/03/16 03:08:28;;;;;;;28.83;16.80;;;;;;;-1.11;100.00;98501.72;5031829;28;20220;-79
2023/03/16 03:10:54;;;;;;;30.00;17.83;;;;;;;-1.11;100.00;98499.13;5031540;28;20200;-77
2023/03/16 03:13:21;;;;;;;34.73;16.93;;;;;;;-1.09;100.00;98507.75;5031433;28;20245;-77
2023/03/16 03:15:47;;;;;;;30.17;17.60;;;;;;;-1.10;100.00;98501.69;5031542;28;20205;-77
2023/03/16 03:18:14;;;;;;;29.07;17.70;;;;;;;-1.11;100.00;98509.50;5031415;28;20295;-77
2023/03/16 03:20:40;;;;;;;33.37;17.57;;;;;;;-1.10;100.00;98503.44;5031388;28;20556;-77
2023/03/16 03:23:08;;;;;;;29.20;15.83;;;;;;;-1.14;100.00;98513.00;5031630;28;20239;-78
2023/03/16 03:25:34;;;;;;;23.43;15.13;;;;;;;-1.20;100.00;98502.75;5031517;28;20213;-78
2023/03/16 03:28:04;;;;;;;35.03;16.90;;;;;;;-1.22;100.00;98501.06;5031347;28;20214;-78
2023/03/16 03:30:31;;;;;;;28.03;16.80;;;;;;;-1.14;100.00;98496.59;5031133;28;20217;-78
2023/03/16 03:32:58;;;;;;;29.43;17.03;;;;;;;-1.15;100.00;98476.72;5031018;28;20629;-78
2023/03/16 03:35:24;;;;;;;29.63;17.50;;;;;;;-1.15;100.00;98481.91;5031543;28;20218;-78
2023/03/16 03:37:51;;;;;;;28.43;16.60;;;;;;;-1.15;100.00;98487.09;5030902;28;20299;-78
2023/03/16 03:40:20;;;;;;;27.27;15.87;;;;;;;-1.18;100.00;98479.38;5030953;28;20206;-78
2023/03/16 03:42:47;;;;;;;28.33;16.50;;;;;;;-1.21;100.00;98482.00;5031195;28;20231;-78
2023/03/16 03:45:14;;;;;;;24.60;14.33;;;;;;;-1.23;100.00;98483.78;5030915;28;20213;-78
2023/03/16 03:47:42;;;;;;;25.97;15.10;;;;;;;-1.25;100.00;98482.94;5031034;28;20220;-78
2023/03/16 03:50:10;;;;;;;28.57;16.17;;;;;;;-1.20;100.00;98483.72;5030876;28;20216;-77
2023/03/16 03:52:37;;;;;;;24.83;15.33;;;;;;;-1.18;100.00;98487.16;5030880;28;20208;-77
2023/03/16 03:55:04;;;;;;;28.80;15.70;;;;;;;-1.16;100.00;98475.03;5030927;28;20235;-77
2023/03/16 03:57:32;;;;;;;29.17;15.03;;;;;;;-1.18;100.00;98482.81;5030839;28;20220;-77
2023/03/16 03:59:58;;;;;;;28.40;15.77;;;;;;;-1.17;100.00;98470.72;5030535;28;20586;-77
2023/03/16 04:02:25;;;;;;;23.90;13.80;;;;;;;-1.19;100.00;98469.88;5030734;28;20237;-77
2023/03/16 04:04:51;;;;;;;26.13;14.20;;;;;;;-1.20;100.00;98468.16;5030952;28;20683;-78
2023/03/16 04:07:18;;;;;;;26.50;15.10;;;;;;;-1.23;100.00;98468.25;5031106;28;20213;-78
2023/03/16 04:09:44;;;;;;;24.23;14.10;;;;;;;-1.21;100.00;98469.06;5030589;28;20212;-78
2023/03/16 04:12:11;;;;;;;29.30;14.27;;;;;;;-1.25;100.00;98469.97;5031030;28;20217;-77
2023/03/16 04:14:39;;;;;;;26.70;14.73;;;;;;;-1.26;100.00;98478.63;5030587;28;20237;-77
2023/03/16 04:17:06;;;;;;;25.07;14.57;;;;;;;-1.27;100.00;98466.56;5030915;28;20212;-77
2023/03/16 04:19:32;;;;;;;26.17;13.83;;;;;;;-1.28;100.00;98470.03;5030747;28;20208;-77
2023/03/16 04:21:59;;;;;;;26.30;14.47;;;;;;;-1.28;100.00;98472.63;5030999;28;20219;-77
2023/03/16 04:24:25;;;;;;;26.60;14.53;;;;;;;-1.26;100.00;98470.88;5030681;28;20229;-77
2023/03/16 04:26:53;;;;;;;23.37;14.03;;;;;;;-1.24;100.00;98462.19;5030639;28;20225;-77
2023/03/16 04:29:19;;;;;;;25.93;14.23;;;;;;;-1.24;100.00;98461.34;5030283;28;20209;-78
2023/03/16 04:31:47;;;;;;;24.53;14.27;;;;;;;-1.22;100.00;98462.16;5030659;28;20217;-78
2023/03/16 04:34:13;;;;;;;28.70;15.07;;;;;;;-1.24;100.00;98457.00;5030630;28;20232;-78
2023/03/16 04:36:40;;;;;;;24.73;14.03;;;;;;;-1.19;100.00;98459.50;5030471;28;20682;-78
2023/03/16 04:39:08;;;;;;;25.23;15.47;;;;;;;-1.21;100.00;98450.91;5030253;28;20699;-78
2023/03/16 04:41:35;;;;;;;28.97;14.63;;;;;;;-1.16;100.00;98446.50;5030481;28;20555;-77
2023/03/16 04:44:05;;;;;;;23.53;14.13;;;;;;;-1.21;100.00;98450.91;5030378;28;20229;-78
2023/03/16 04:46:31;;;;;;;24.60;14.50;;;;;;;-1.22;100.00;98454.38;5030693;28;20223;-78
2023/03/16 04:48:59;;;;;;;25.20;14.87;;;;;;;-1.20;100.00;98453.47;5031809;28;20205;-78
2023/03/16 04:51:25;;;;;;;23.40;13.87;;;;;;;-1.21;100.00;98456.09;5034103;28;20311;-78
2023/03/16 04:53:52;;;;;;;27.87;15.37;;;;;;;-1.21;100.00;98456.97;5033978;28;20634;-79
2023/03/16 04:56:18;;;;;;;24.70;14.30;;;;;;;-1.20;100.00;98452.59;5034057;28;20220;-78
2023/03/16 04:58:45;;;;;;;24.27;13.33;;;;;;;-1.21;100.00;98450.91;5034293;28;20213;-78
2023/03/16 05:01:12;;;;;;;26.57;14.77;;;;;;;-1.15;100.00;98455.97;5034045;28;20209;-78
2023/03/16 05:03:39;;;;;;;26.80;14.57;;;;;;;-1.12;100.00;98455.94;5033725;28;20279;-78
2023/03/16 05:06:07;;;;;;;27.93;14.63;;;;;;;-1.10;100.00;98454.16;5034098;28;20710;-78
2023/03/16 05:08:33;;;;;;;29.90;15.33;;;;;;;-1.08;100.00;98448.06;5033904;28;20702;-78
2023/03/16 05:11:00;;;;;;;28.80;15.17;;;;;;;-1.11;100.00;98455.06;5033625;28;20217;-78
2023/03/16 05:13:26;;;;;;;24.37;14.57;;;;;;;-1.16;100.00;98454.28;5034068;28;20229;-78
2023/03/16 05:15:53;;;;;;;25.43;14.03;;;;;;;-1.19;100.00;98451.72;5033969;28;20235;-78
2023/03/16 05:18:20;;;;;;;25.30;13.70;;;;;;;-1.21;100.00;98453.50;5034039;28;20549;-79
2023/03/16 05:20:50;;;;;;;28.83;15.33;;;;;;;-1.18;100.00;98451.69;5033571;28;20209;-79
2023/03/16 05:23:18;;;;;;;23.40;14.63;;;;;;;-1.15;100.00;98450.78;5033746;28;20674;-78
2023/03/16 05:25:46;;;;;;;24.03;14.27;;;;;;;-1.18;100.00;98453.47;5033934;28;20584;-79
2023/03/16 05:28:13;;;;;;;24.20;14.50;;;;;;;-1.22;100.00;98455.22;5033779;28;20221;-78
2023/03/16 05:30:40;;;;;;;25.93;14.13;;;;;;;-1.18;100.00;98450.88;5033439;28;20213;-78
2023/03/16 05:33:07;;;;;;;25.83;14.47;;;;;;;-1.19;100.00;98443.94;5033601;28;20283;-78
2023/03/16 05:35:34;;;;;;;24.20;14.33;;;;;;;-1.19;100.00;98449.13;5033561;28;20251;-78
2023/03/16 05:38:01;;;;;;;27.23;13.17;;;;;;;-1.22;100.00;98447.44;5033391;28;20216;-78
2023/03/16 05:40:29;;;;;;;24.70;14.03;;;;;;;-1.20;100.00;98452.59;5033159;28;20707;-78
2023/03/16 05:42:57;;;;;;;22.73;13.47;;;;;;;-1.26;100.00;98443.22;5033209;28;20225;-78
2023/03/16 05:45:23;;;;;;;25.90;13.90;;;;;;;-1.27;100.00;98440.63;5033353;28;20209;-78
2023/03/16 05:47:50;;;;;;;26.70;15.03;;;;;;;-1.27;100.00;98438.03;5033261;28;20205;-78
2023/03/16 05:50:17;;;;;;;28.13;15.87;;;;;;;-1.20;100.00;98442.22;5032839;28;20523;-79
2023/03/16 05:52:44;;;;;;;28.10;15.07;;;;;;;-1.14;100.00;98436.94;5033224;28;20233;-78
2023/03/16 05:55:13;;;;;;;27.80;14.90;;;;;;;-1.08;100.00;98437.69;5033292;28;20598;-79
2023/03/16 05:57:41;;;;;;;27.53;15.33;;;;;;;-1.04;100.00;98433.31;5033652;28;20213;-79
2023/03/16 06:00:14;;;;;;;26.60;14.73;;;;;;;-1.04;100.00;98433.31;5032568;28;20209;-79
2023/03/16 06:02:40;;;;;;;29.70;15.87;;;;;;;-0.98;100.00;98433.19;5032773;28;20321;-79
2023/03/16 06:05:07;;;;;;;25.60;15.10;;;;;;;-0.88;100.00;98439.88;5032817;28;20587;-79
2023/03/16 06:07:34;;;;;;;31.73;17.43;;;;;;;-0.81;100.00;98431.13;5032770;28;20209;-79
2023/03/16 06:10:01;;;;;;;27.43;15.40;;;;;;;-0.74;100.00;98432.72;5032699;28;20209;-79
2023/03/16 06:12:29;;;;;;;29.60;16.27;;;;;;;-0.70;100.00;98434.34;5032768;28;20208;-79
2023/03/16 06:14:57;;;;;;;32.73;16.77;;;;;;;-0.65;100.00;98428.19;5032746;28;20326;-79
2023/03/16 06:17:24;;;;;;;28.93;16.30;;;;;;;-0.61;100.00;98429.81;5032748;28;20209;-78
2023/03/16 06:19:50;;;;;;;30.57;16.07;;;;;;;-0.57;100.00;98425.44;5032991;28;20217;-79
2023/03/16 06:22:18;;;;;;;29.60;15.60;;;;;;;-0.55;100.00;98424.50;5032829;28;20209;-78
2023/03/16 06:24:44;;;;;;;24.77;15.17;;;;;;;-0.50;100.00;98427.84;5032481;28;20272;-78
2023/03/16 06:27:11;;;;;;;28.50;16.03;;;;;;;-0.44;100.00;98437.28;5032370;28;20222;-78
2023/03/16 06:29:38;;;;;;;28.83;16.43;;;;;;;-0.37;100.00;98438.84;5032018;28;20214;-77
2023/03/16 06:32:09;;;;;;;29.57;15.47;;;;;;;-0.35;100.00;98437.94;5032554;28;20717;-77
2023/03/16 06:34:35;;;;;;;29.23;16.17;;;;;;;-0.32;100.00;98437.00;5032349;28;20323;-77
2023/03/16 06:37:02;;;;;;;30.63;15.93;;;;;;;-0.28;100.00;98445.53;5032553;28;20209;-77
2023/03/16 06:39:29;;;;;;;28.40;16.40;;;;;;;-0.19;100.00;98443.66;5031748;28;20207;-80
2023/03/16 06:41:55;;;;;;;27.40;15.90;;;;;;;-0.14;100.00;98434.84;5032230;28;20700;-78
2023/03/16 06:44:22;;;;;;;30.07;15.67;;;;;;;-0.13;100.00;98440.03;5032200;28;20230;-78
2023/03/16 06:46:48;;;;;;;27.13;15.53;;;;;;;-0.08;100.00;98441.66;5031974;28;20709;-78
2023/03/16 06:49:20;;;;;;;32.53;16.20;;;;;;;-0.01;100.00;98433.69;5031944;28;20214;-78
2023/03/16 06:51:46;;;;;;;30.53;16.23;;;;;;;0.06;100.00;98430.91;5032187;28;20296;-78
2023/03/16 06:54:15;;;;;;;28.63;15.83;;;;;;;0.11;100.00;98431.66;5031746;28;20244;-78
2023/03/16 06:56:41;;;;;;;30.93;16.47;;;;;;;0.13;100.00;98435.06;5032001;28;20220;-78
2023/03/16 06:59:08;;;;;;;30.67;17.37;;;;;;;0.28;100.00;98437.34;5031531;28;20208;-78
2023/03/16 07:01:34;;;;;;;29.03;17.17;;;;;;;0.41;100.00;98437.88;5032241;28;20233;-77
2023/03/16 07:04:01;;;;;;;28.53;16.53;;;;;;;0.43;100.00;98442.16;5031709;28;20237;-78
2023/03/16 07:06:31;;;;;;;29.57;16.20;;;;;;;0.51;100.00;98449.78;5032155;28;20260;-77
2023/03/16 07:08:58;;;;;;;30.67;17.30;;;;;;;0.57;100.00;98444.41;5031977;28;20295;-78
2023/03/16 07:11:24;;;;;;;26.53;15.57;;;;;;;0.64;100.00;98439.03;5030613;28;20687;-78
2023/03/16 07:13:50;;;;;;;33.83;16.77;;;;;;;0.69;100.00;98438.91;5031585;28;20380;-78
2023/03/16 07:16:17;;;;;;;26.43;15.87;;;;;;;0.73;100.00;98446.59;5031520;28;20229;-78
2023/03/16 07:18:43;;;;;;;31.00;17.00;;;;;;;0.77;100.00;98448.22;5031946;28;20237;-78
2023/03/16 07:21:13;;;;;;;29.23;15.67;;;;;;;0.85;100.00;98451.47;5031406;28;20562;-78
2023/03/16 07:23:41;;;;;;;29.37;17.10;;;;;;;0.93;100.00;98448.69;5031286;28;20334;-78
2023/03/16 07:26:17;;;;;;;31.50;17.43;;;;;;;0.98;100.00;98452.03;5031398;28;20580;-78
2023/03/16 07:28:46;;;;;;;30.87;16.87;;;;;;;1.05;100.00;98448.34;5031640;28;20223;-78
2023/03/16 07:31:13;;;;;;;30.37;17.17;;;;;;;1.19;100.00;98447.09;5031203;28;20276;-78
2023/03/16 07:33:40;;;;;;;28.17;17.00;;;;;;;1.28;100.00;98446.00;5031484;28;20275;-78
2023/03/16 07:36:09;;;;;;;30.87;17.97;;;;;;;1.31;100.00;98459.78;5031702;28;20234;-78
2023/03/16 07:38:38;;;;;;;29.90;16.90;;;;;;;1.35;100.00;98452.72;5031234;28;20269;-78
2023/03/16 07:41:08;;;;;;;29.20;17.50;;;;;;;1.49;100.00;98442.78;5031273;28;20210;-78
2023/03/16 07:43:34;;;;;;;28.63;16.67;;;;;;;1.62;100.00;98449.34;5031597;28;20237;-78
2023/03/16 07:46:04;;;;;;;26.80;15.90;;;;;;;1.73;100.00;98455.09;5031262;28;20207;-78
2023/03/16 07:48:31;;;;;;;25.03;16.30;;;;;;;1.71;100.00;98452.53;5031467;28;20204;-79
2023/03/16 07:50:57;;;;;;;26.60;15.23;;;;;;;1.73;100.00;98453.31;5030880;28;20212;-79
2023/03/16 07:53:24;;;;;;;27.03;15.03;;;;;;;1.80;100.00;98462.69;5030602;28;20622;-79
2023/03/16 07:55:50;;;;;;;27.07;15.50;;;;;;;1.92;100.00;98457.13;5030103;28;20230;-79
2023/03/16 07:58:18;;;;;;;28.33;16.20;;;;;;;2.05;100.00;98449.78;5030292;28;20210;-79
2023/03/16 08:00:45;;;;;;;27.03;16.50;;;;;;;2.16;100.00;98451.16;5030117;28;20213;-82
2023/03/16 08:03:12;;;;;;;29.43;16.53;;;;;;;2.28;100.00;98455.97;5030298;28;20242;-77
2023/03/16 08:05:39;;;;;;;26.63;16.23;;;;;;;2.38;100.00;98457.41;5029991;28;20295;-78
2023/03/16 08:08:08;;;;;;;27.50;16.87;;;;;;;2.54;100.00;98449.94;5029885;28;20215;-79
2023/03/16 08:10:35;;;;;;;28.67;15.83;;;;;;;2.69;100.00;98452.88;5029720;28;20699;-78
2023/03/16 08:13:03;;;;;;;26.60;17.10;;;;;;;2.73;100.00;98451.03;5030168;28;20230;-78
2023/03/16 08:15:32;;;;;;;26.53;15.70;;;;;;;2.77;100.00;98456.13;5029901;28;20240;-79
2023/03/16 08:17:59;;;;;;;27.63;16.50;;;;;;;2.87;100.00;98454.88;5029923;28;20509;-78
2023/03/16 08:20:25;;;;;;;28.07;16.50;;;;;;;2.91;100.00;98459.13;5029538;28;20232;-79
2023/03/16 08:22:52;;;;;;;28.03;17.03;;;;;;;2.99;100.00;98459.69;5031060;28;20228;-79
2023/03/16 08:25:19;;;;;;;28.93;16.30;;;;;;;3.03;100.00;98453.47;5033295;28;20213;-79
2023/03/16 08:27:47;;;;;;;25.53;15.67;;;;;;;3.09;100.00;98457.63;5033618;28;20212;-78
2023/03/16 08:30:15;;;;;;;23.03;14.17;;;;;;;3.23;100.00;98456.25;5033225;28;20733;-79
2023/03/16 08:32:43;;;;;;;26.90;15.97;;;;;;;3.41;100.00;98455.59;5033058;28;20280;-79
2023/03/16 08:35:12;;;;;;;22.60;14.10;;;;;;;3.58;100.00;98441.91;5031839;28;20297;-80
2023/03/16 08:37:40;;;;;;;20.03;13.20;;;;;;;3.78;100.00;98440.25;5032317;28;20211;-82
2023/03/16 08:40:09;;;;;;;22.30;14.20;;;;;;;3.93;100.00;98437.09;5032699;28;20259;-82
2023/03/16 08:42:37;;;;;;;23.43;14.23;;;;;;;4.07;100.00;98426.94;5031628;28;20231;-81
2023/03/16 08:45:08;;;;;;;18.60;11.80;;;;;;;4.38;100.00;98430.06;5033312;28;20211;-82
2023/03/16 08:47:35;;;;;;;19.40;12.43;;;;;;;4.42;100.00;98429.03;5033157;28;20231;-84
2023/03/16 08:50:04;;;;;;;19.13;14.30;;;;;;;4.69;100.00;98427.03;5030330;28;20437;-79
2023/03/16 08:52:31;;;;;;;18.97;13.00;;;;;;;4.74;100.00;98419.84;4993368;28;1090109;-78
2023/03/16 08:54:57;;;;;;;16.70;11.43;;;;;;;4.85;100.00;98407.16;5033317;28;20231;-79
2023/03/16 08:57:24;;;;;;;14.07;9.87;;;;;;;4.96;100.00;98416.25;5033466;28;20206;-79
2023/03/16 08:59:50;;;;;;;14.83;10.37;;;;;;;5.06;100.00;98411.50;5026301;28;20210;-78
2023/03/16 09:02:17;;;;;;;15.03;10.90;;;;;;;5.29;100.00;98414.81;5029926;28;20220;-81
2023/03/16 09:04:44;;;;;;;12.50;9.87;;;;;;;5.39;100.00;98416.13;5033607;28;20316;-80
2023/03/16 09:07:12;;;;;;;13.23;9.97;;;;;;;5.51;100.00;98415.56;5033504;28;20214;-82
2023/03/16 09:09:39;;;;;;;11.60;9.03;;;;;;;5.53;100.00;98412.88;5032711;28;20258;-83
2023/03/16 09:12:07;;;;;;;13.47;9.53;;;;;;;5.46;100.00;98409.69;5033285;28;20211;-82
2023/03/16 09:14:34;;;;;;;15.00;10.77;;;;;;;5.54;100.00;98409.31;5032920;28;20276;-81
2023/03/16 09:17:00;;;;;;;13.83;10.07;;;;;;;5.73;100.00;98405.81;5033270;28;20319;-83
2023/03/16 09:19:27;;;;;;;14.53;10.03;;;;;;;5.74;100.00;98414.53;5032607;28;20215;-82
2023/03/16 09:21:53;;;;;;;12.83;9.23;;;;;;;5.87;100.00;98406.06;5033275;28;20209;-82
2023/03/16 09:24:21;;;;;;;14.37;10.60;;;;;;;5.99;100.00;98402.88;5033064;28;20229;-83
2023/03/16 09:26:48;;;;;;;18.57;9.70;;;;;;;6.26;100.00;98392.84;5033185;28;20210;-82
2023/03/16 09:29:17;;;;;;;11.60;9.13;;;;;;;6.52;100.00;98379.28;5032519;28;20233;-82
2023/03/16 09:31:44;;;;;;;14.10;9.77;;;;;;;6.83;100.00;98377.69;5033656;28;20209;-79
2023/03/16 09:34:10;;;;;;;12.40;8.93;;;;;;;7.02;100.00;98381.09;5031986;28;20231;-82
2023/03/16 09:36:38;;;;;;;11.13;8.53;;;;;;;7.20;100.00;98385.41;5031685;28;20228;-83
2023/03/16 09:39:04;;;;;;;11.98;8.93;;;;;;;7.26;100.00;98371.94;5032588;28;20503;-83
2023/03/16 09:41:42;;;;;;;9.63;7.77;;;;;;;7.25;100.00;98372.88;5033208;28;20213;-83
2023/03/16 09:44:28;;;;;;;11.53;8.40;;;;;;;7.30;100.00;98384.00;5032918;28;20229;-87
2023/03/16 09:46:57;;;;;;;11.17;8.07;;;;;;;7.44;100.00;98384.13;5030926;28;20258;-84
2023/03/16 09:49:28;;;;;;;10.97;8.13;;;;;;;7.61;100.00;98373.56;5033145;28;20320;-82
2023/03/16 09:52:04;;;;;;;11.27;8.53;;;;;;;7.75;100.00;98355.25;5031162;28;20623;-84
2023/03/16 09:54:38;;;;;;;9.83;7.73;;;;;;;7.93;100.00;98363.00;5031141;28;20244;-84
2023/03/16 09:57:17;;;;;;;10.00;7.90;;;;;;;7.99;100.00;98359.16;5032878;28;20232;-83
2023/03/16 09:59:44;;;;;;;10.67;6.77;;;;;;;8.10;100.00;98362.94;5030871;28;20270;-82
2023/03/16 10:02:40;;;;;;;11.47;8.27;;;;;;;8.21;100.00;98367.63;5019685;28;20234;-82
2023/03/16 10:05:09;;;;;;;10.43;7.20;;;;;;;8.33;100.00;98351.97;5012645;28;20526;-84
2023/03/16 10:07:45;;;;;;;11.27;6.83;;;;;;;8.48;100.00;98347.59;5012261;28;20212;-85
2023/03/16 10:10:22;;;;;;;10.97;7.00;;;;;;;8.60;100.00;98341.63;5012026;28;20232;-86
2023/03/16 10:12:53;;;;;;;9.87;6.73;;;;;;;8.68;98.81;98339.38;5013364;28;20241;-84
2023/03/16 10:15:25;;;;;;;8.83;6.60;;;;;;;8.64;100.00;98344.00;5011871;28;20235;-79
2023/03/16 10:17:58;;;;;;;7.17;6.00;;;;;;;8.62;100.00;98355.59;5013162;28;20215;-76
2023/03/16 10:20:27;;;;;;;10.23;6.67;;;;;;;8.69;100.00;98363.03;5012528;28;20231;-76
2023/03/16 10:22:58;;;;;;;7.47;5.47;;;;;;;8.77;100.00;98354.69;5011320;28;20240;-76
2023/03/16 10:25:31;;;;;;;7.47;5.13;;;;;;;8.91;92.17;98331.84;5011418;28;20504;-77
2023/03/16 10:27:59;;;;;;;5.80;4.77;;;;;;;8.91;95.37;98336.25;5012284;28;20212;-76
2023/03/16 10:30:28;;;;;;;7.47;5.80;;;;;;;9.00;94.10;98326.00;5011788;28;20227;-77
2023/03/16 10:32:56;;;;;;;7.97;5.27;;;;;;;9.13;90.65;98310.31;5012599;28;20299;-76
2023/03/16 10:35:34;;;;;;;8.43;5.78;;;;;;;9.35;90.14;98301.00;5012087;28;20474;-78
2023/03/16 10:38:01;;;;;;;7.80;5.60;;;;;;;9.40;91.38;98306.84;5012468;28;20270;-76
2023/03/16 10:40:32;;;;;;;5.30;4.80;;;;;;;9.56;86.20;98293.53;5010708;28;20446;-76
2023/03/16 10:43:07;;;;;;;7.83;5.20;;;;;;;9.68;85.09;98292.78;5011266;28;20261;-76
2023/03/16 10:45:35;;;;;;;7.17;5.17;;;;;;;9.72;83.47;98291.66;5028947;28;20249;-77
2023/03/16 10:48:12;;;;;;;5.97;4.20;;;;;;;9.80;83.11;98298.13;5030340;28;20231;-77
2023/03/16 10:50:40;;;;;;;5.97;4.53;;;;;;;9.89;82.32;98296.69;5026464;28;20681;-77
2023/03/16 10:53:16;;;;;;;5.50;4.30;;;;;;;9.84;84.16;98304.91;5012875;28;20280;-77
2023/03/16 10:55:44;;;;;;;6.73;4.30;;;;;;;9.81;78.36;98262.03;5011038;28;20317;-76
2023/03/16 10:58:24;;;;;;;5.27;4.20;;;;;;;10.00;80.79;98278.38;5011041;28;20213;-77
2023/03/16 11:00:52;;;;;;;4.87;4.27;;;;;;;10.15;80.88;98278.25;5011796;28;20270;-76
2023/03/16 11:03:26;;;;;;;5.87;4.30;;;;;;;10.19;76.58;98244.56;5012263;28;20237;-77
2023/03/16 11:06:01;;;;;;;4.60;3.80;;;;;;;10.05;73.25;98234.06;5012134;28;20205;-77
2023/03/16 11:08:37;;;;;;;7.73;4.97;;;;;;;10.14;73.16;98238.72;5088472;27;20549;-78
2023/03/16 11:11:12;;;;;;;6.30;4.23;;;;;;;10.20;74.88;98259.47;5088252;28;20199;-77
2023/03/16 11:13:44;;;;;;;7.70;5.17;;;;;;;10.29;78.44;98274.72;5088054;28;20781;-76
2023/03/16 11:16:23;;;;;;;5.70;4.37;;;;;;;10.24;75.08;98260.97;5088226;28;20204;-75
2023/03/16 11:18:54;;;;;;;5.90;4.10;;;;;;;10.04;67.42;98214.72;5088374;28;20231;-77
2023/03/16 11:21:30;;;;;;;4.90;3.67;;;;;;;9.78;65.33;98209.44;5076122;22;20246;-75